createdAt,value
2022-10-12T00:00:53.946Z,78.84
2022-10-12T00:03:34.389Z,79.08
2022-10-12T00:06:13.080Z,79.15
2022-10-12T00:08:42.218Z,79.15
2022-10-12T00:11:14.051Z,79.66
2022-10-12T00:13:41.771Z,80.05
2022-10-12T00:16:12.317Z,80.01
2022-10-12T00:18:40.453Z,80.25
2022-10-12T00:21:16.276Z,80.41
2022-10-12T00:23:44.565Z,80.25
2022-10-12T00:26:13.790Z,79.85
2022-10-12T00:28:41.618Z,79.58
2022-10-12T00:31:15.185Z,79.68
2022-10-12T00:33:44.001Z,79.73
2022-10-12T00:36:23.433Z,79.43
2022-10-12T00:38:53.089Z,79.38
2022-10-12T00:41:23.671Z,79.47
2022-10-12T00:43:57.858Z,79.59
2022-10-12T00:46:30.092Z,79.36
2022-10-12T00:49:09.461Z,79.41
2022-10-12T00:51:39.310Z,79.48
2022-10-12T00:54:12.285Z,79.53
2022-10-12T00:56:44.245Z,79.87
2022-10-12T00:59:19.246Z,80.24
2022-10-12T01:01:46.928Z,80.63
2022-10-12T01:04:14.780Z,80.57
2022-10-12T01:06:42.470Z,80.39
2022-10-12T01:09:10.083Z,80.32
2022-10-12T01:11:37.850Z,80.20
2022-10-12T01:14:05.691Z,80.13
2022-10-12T01:16:36.294Z,79.85
2022-10-12T01:19:13.043Z,79.73
2022-10-12T01:21:50.422Z,79.70
2022-10-12T01:24:30.103Z,79.68
2022-10-12T01:27:12.231Z,79.78
2022-10-12T01:30:09.242Z,79.49
2022-10-12T01:33:04.631Z,79.60
2022-10-12T01:35:45.897Z,79.80
2022-10-12T01:38:35.233Z,79.86
2022-10-12T01:41:18.874Z,80.10
2022-10-12T01:43:47.211Z,80.53
2022-10-12T01:46:20.977Z,80.52
2022-10-12T01:48:51.986Z,80.68
2022-10-12T01:51:31.496Z,80.79
2022-10-12T01:54:24.731Z,80.42
2022-10-12T01:57:08.003Z,80.40
2022-10-12T01:59:41.546Z,80.18
2022-10-12T02:02:42.045Z,80.32
2022-10-12T02:05:14.856Z,79.96
2022-10-12T02:07:48.403Z,80.05
2022-10-12T02:10:28.361Z,79.94
2022-10-12T02:12:59.177Z,79.74
2022-10-12T02:15:28.082Z,79.87
2022-10-12T02:17:57.985Z,80.11
2022-10-12T02:20:27.666Z,79.64
2022-10-12T02:22:55.627Z,79.91
2022-10-12T02:25:26.943Z,80.17
2022-10-12T02:28:00.602Z,80.21
2022-10-12T02:30:28.292Z,80.55
2022-10-12T02:33:06.365Z,80.73
2022-10-12T02:36:03.604Z,80.95
2022-10-12T02:38:58.088Z,80.90
2022-10-12T02:41:33.328Z,80.77
2022-10-12T02:44:05.121Z,80.46
2022-10-12T02:46:35.376Z,79.95
2022-10-12T02:49:04.516Z,80.11
2022-10-12T02:51:33.092Z,80.30
2022-10-12T02:54:01.917Z,80.22
2022-10-12T02:56:29.694Z,80.05
2022-10-12T02:58:57.623Z,80.23
2022-10-12T03:01:25.367Z,80.28
2022-10-12T03:03:53.039Z,80.21
2022-10-12T03:06:20.716Z,80.45
2022-10-12T03:08:48.422Z,80.41
2022-10-12T03:11:16.048Z,80.95
2022-10-12T03:13:43.691Z,81.11
2022-10-12T03:16:12.098Z,81.23
2022-10-12T03:18:40.289Z,81.15
2022-10-12T03:21:08.035Z,81.51
2022-10-12T03:23:35.626Z,81.16
2022-10-12T03:26:04.196Z,81.30
2022-10-12T03:28:32.831Z,81.15
2022-10-12T03:31:01.058Z,80.99
2022-10-12T03:33:29.410Z,80.71
2022-10-12T03:35:57.266Z,80.31
2022-10-12T03:38:24.936Z,80.77
2022-10-12T03:40:52.604Z,80.13
2022-10-12T03:43:20.386Z,80.34
2022-10-12T03:45:48.046Z,80.35
2022-10-12T03:48:15.794Z,80.16
2022-10-12T03:50:48.489Z,80.30
2022-10-12T03:53:16.611Z,81.01
2022-10-12T03:55:44.455Z,81.25
2022-10-12T03:58:13.248Z,81.30
2022-10-12T04:00:41.873Z,81.81
2022-10-12T04:03:09.539Z,81.68
2022-10-12T04:05:37.211Z,81.62
2022-10-12T04:08:05.060Z,81.33
2022-10-12T04:10:32.693Z,81.36
2022-10-12T04:13:00.306Z,81.05
2022-10-12T04:15:27.944Z,80.88
2022-10-12T04:17:55.609Z,80.77
2022-10-12T04:20:23.269Z,80.82
2022-10-12T04:22:50.890Z,80.34
2022-10-12T04:25:18.569Z,80.71
2022-10-12T04:27:46.208Z,80.63
2022-10-12T04:30:14.163Z,80.66
2022-10-12T04:32:42.046Z,80.32
2022-10-12T04:35:09.730Z,80.78
2022-10-12T04:37:37.761Z,80.49
2022-10-12T04:40:06.341Z,81.27
2022-10-12T04:42:34.000Z,81.52
2022-10-12T04:45:01.792Z,81.82
2022-10-12T04:47:29.535Z,81.80
2022-10-12T04:49:57.111Z,81.47
2022-10-12T04:52:24.773Z,81.69
2022-10-12T04:54:52.432Z,81.31
2022-10-12T04:57:20.294Z,81.39
2022-10-12T04:59:47.921Z,81.06
2022-10-12T05:02:15.957Z,81.05
2022-10-12T05:04:43.758Z,81.02
2022-10-12T05:07:11.466Z,80.82
2022-10-12T05:09:39.368Z,80.71
2022-10-12T05:12:07.236Z,80.57
2022-10-12T05:14:36.204Z,80.78
2022-10-12T05:20:26.713Z,80.83
2022-10-12T05:22:54.362Z,81.44
2022-10-12T05:25:22.174Z,81.36
2022-10-12T05:27:49.857Z,81.45
2022-10-12T05:30:17.680Z,81.34
2022-10-12T05:32:45.316Z,81.57
2022-10-12T05:35:13.020Z,81.31
2022-10-12T05:37:41.110Z,80.94
2022-10-12T05:40:09.278Z,80.81
2022-10-12T05:42:37.218Z,80.35
2022-10-12T05:45:06.059Z,80.34
2022-10-12T05:47:33.868Z,80.19
2022-10-12T05:50:01.840Z,79.82
2022-10-12T05:52:29.681Z,79.79
2022-10-12T05:54:57.311Z,79.32
2022-10-12T05:57:24.989Z,79.69
2022-10-12T05:59:52.623Z,79.38
2022-10-12T06:02:21.623Z,80.21
2022-10-12T06:04:49.381Z,80.51
2022-10-12T06:07:17.120Z,79.89
2022-10-12T06:09:44.823Z,80.78
2022-10-12T06:12:12.777Z,79.69
2022-10-12T06:14:40.415Z,79.65
2022-10-12T06:17:09.584Z,79.68
2022-10-12T06:19:37.341Z,79.22
2022-10-12T06:22:05.127Z,78.64
2022-10-12T06:24:32.847Z,78.04
2022-10-12T06:27:01.168Z,77.63
2022-10-12T06:29:28.780Z,77.01
2022-10-12T06:31:56.525Z,76.72
2022-10-12T06:34:24.228Z,76.41
2022-10-12T06:36:52.314Z,76.03
2022-10-12T06:39:20.037Z,75.97
2022-10-12T06:41:47.777Z,75.43
2022-10-12T06:44:15.603Z,75.04
2022-10-12T06:46:43.295Z,74.96
2022-10-12T06:49:11.057Z,75.33
2022-10-12T06:51:39.103Z,75.39
2022-10-12T06:54:06.710Z,75.11
2022-10-12T06:56:35.055Z,74.71
2022-10-12T06:59:02.707Z,74.26
2022-10-12T07:01:30.471Z,73.11
2022-10-12T07:04:00.653Z,71.08
2022-10-12T07:06:28.828Z,69.00
2022-10-12T07:08:56.502Z,66.20
2022-10-12T07:11:24.271Z,63.54
2022-10-12T07:13:51.865Z,61.30
2022-10-12T07:16:19.642Z,59.29
2022-10-12T07:18:47.311Z,57.67
2022-10-12T07:21:15.035Z,56.42
2022-10-12T07:23:46.043Z,55.35
2022-10-12T07:26:14.326Z,54.70
2022-10-12T07:28:42.059Z,52.78
2022-10-12T07:31:10.068Z,52.34
2022-10-12T07:33:41.188Z,49.96
2022-10-12T07:36:21.286Z,50.55
2022-10-12T07:38:50.161Z,48.98
2022-10-12T07:41:18.520Z,47.64
2022-10-12T07:43:46.256Z,46.77
2022-10-12T07:46:14.047Z,46.25
2022-10-12T07:48:47.273Z,44.65
2022-10-12T07:51:18.446Z,43.24
2022-10-12T07:53:46.203Z,41.77
2022-10-12T07:56:17.209Z,40.76
2022-10-12T07:58:50.371Z,39.38
2022-10-12T08:01:19.773Z,37.79
2022-10-12T08:03:48.275Z,36.16
2022-10-12T08:06:18.901Z,34.17
2022-10-12T08:08:46.983Z,33.78
2022-10-12T08:11:14.691Z,32.28
2022-10-12T08:13:43.506Z,30.69
2022-10-12T08:16:14.694Z,30.09
2022-10-12T08:18:42.646Z,28.48
2022-10-12T08:21:12.931Z,27.67
2022-10-12T08:23:41.097Z,26.59
2022-10-12T08:26:09.893Z,25.52
2022-10-12T08:28:37.744Z,23.83
2022-10-12T08:31:07.283Z,23.47
2022-10-12T08:33:35.272Z,23.02
2022-10-12T08:36:05.234Z,22.33
2022-10-12T08:38:33.752Z,21.21
2022-10-12T08:41:06.990Z,21.43
2022-10-12T08:43:52.301Z,20.14
2022-10-12T08:46:22.469Z,19.88
2022-10-12T08:48:59.988Z,19.62
2022-10-12T08:51:31.744Z,18.73
2022-10-12T08:54:07.539Z,19.35
2022-10-12T08:56:35.864Z,19.09
2022-10-12T08:59:03.745Z,18.67
2022-10-12T09:01:51.697Z,18.34
2022-10-12T09:04:22.594Z,17.35
2022-10-12T09:07:15.193Z,17.65
2022-10-12T09:09:51.913Z,17.57
2022-10-12T09:12:51.959Z,17.15
2022-10-12T09:15:24.080Z,17.06
2022-10-12T09:17:56.769Z,16.98
2022-10-12T09:20:47.066Z,17.15
2022-10-12T09:23:24.426Z,17.07
2022-10-12T09:25:59.106Z,16.83
2022-10-12T09:28:37.644Z,16.28
2022-10-12T09:31:20.668Z,15.80
2022-10-12T09:33:54.221Z,15.61
2022-10-12T09:36:25.236Z,15.08
2022-10-12T09:38:53.656Z,14.94
2022-10-12T09:41:29.724Z,14.70
2022-10-12T09:44:00.535Z,15.13
2022-10-12T09:46:58.072Z,14.89
2022-10-12T09:49:47.266Z,14.93
2022-10-12T09:52:18.020Z,14.43
2022-10-12T09:54:49.870Z,13.86
2022-10-12T09:57:28.174Z,13.94
2022-10-12T09:59:56.147Z,13.90
2022-10-12T10:02:25.199Z,13.38
2022-10-12T10:04:54.177Z,13.80
2022-10-12T10:07:35.202Z,13.49
2022-10-12T10:10:16.144Z,12.78
2022-10-12T10:12:48.737Z,12.99
2022-10-12T10:15:23.596Z,12.75
2022-10-12T10:17:54.664Z,12.65
2022-10-12T10:20:36.894Z,12.09
2022-10-12T10:23:05.376Z,12.80
2022-10-12T10:25:34.124Z,12.66
2022-10-12T10:28:22.392Z,12.60
2022-10-12T10:30:59.955Z,13.13
2022-10-12T10:33:27.743Z,14.28
2022-10-12T10:36:05.030Z,14.45
2022-10-12T10:38:49.520Z,14.97
2022-10-12T10:41:20.665Z,15.62
2022-10-12T10:43:49.741Z,15.86
2022-10-12T10:46:27.989Z,16.90
2022-10-12T10:49:06.238Z,17.58
2022-10-12T10:51:53.947Z,18.35
2022-10-12T10:54:24.308Z,18.30
2022-10-12T10:56:56.897Z,18.70
2022-10-12T10:59:36.012Z,19.02
2022-10-12T11:02:11.300Z,17.69
2022-10-12T11:04:46.423Z,17.22
2022-10-12T11:07:56.387Z,16.76
2022-10-12T11:10:31.240Z,16.62
2022-10-12T11:13:24.428Z,17.16
2022-10-12T11:16:03.079Z,17.43
2022-10-12T11:18:41.551Z,17.87
2022-10-12T11:21:17.976Z,18.28
2022-10-12T11:23:51.367Z,19.70
2022-10-12T11:26:43.777Z,19.71
2022-10-12T11:29:14.956Z,20.36
2022-10-12T11:31:50.224Z,20.25
2022-10-12T11:34:21.875Z,20.07
2022-10-12T11:37:18.298Z,21.30
2022-10-12T11:39:47.901Z,20.98
2022-10-12T11:42:27.582Z,20.70
2022-10-12T11:44:55.497Z,21.11
2022-10-12T11:47:38.068Z,20.54
2022-10-12T11:50:27.150Z,19.90
2022-10-12T11:52:57.194Z,19.28
2022-10-12T11:55:30.750Z,19.72
2022-10-12T11:58:07.632Z,20.99
2022-10-12T12:01:04.402Z,22.66
2022-10-12T12:03:44.411Z,23.28
2022-10-12T12:06:32.441Z,24.98
2022-10-12T12:09:02.857Z,25.13
2022-10-12T12:11:33.869Z,26.14
2022-10-12T12:14:26.428Z,27.02
2022-10-12T12:17:14.023Z,27.94
2022-10-12T12:19:43.789Z,28.76
2022-10-12T12:22:31.836Z,29.56
2022-10-12T12:25:15.531Z,30.42
2022-10-12T12:27:45.053Z,31.03
2022-10-12T12:30:18.556Z,31.82
2022-10-12T12:32:56.654Z,32.09
2022-10-12T12:35:33.013Z,32.25
2022-10-12T12:38:05.083Z,32.35
2022-10-12T12:40:33.824Z,32.70
2022-10-12T12:43:29.821Z,33.30
2022-10-12T12:45:57.906Z,34.52
2022-10-12T12:48:43.817Z,35.15
2022-10-12T12:51:20.697Z,35.95
2022-10-12T12:53:55.729Z,36.72
2022-10-12T12:56:56.372Z,36.40
2022-10-12T12:59:50.526Z,36.54
2022-10-12T13:02:49.297Z,36.91
2022-10-12T13:05:38.665Z,37.62
2022-10-12T13:08:18.703Z,38.05
2022-10-12T13:11:14.526Z,38.90
2022-10-12T13:14:07.002Z,39.63
2022-10-12T13:19:42.163Z,39.78
2022-10-12T13:22:33.525Z,40.32
2022-10-12T13:25:07.166Z,40.43
2022-10-12T13:27:45.866Z,40.88
2022-10-12T13:30:36.341Z,40.78
2022-10-12T13:33:21.648Z,40.14
2022-10-12T13:36:13.244Z,40.77
2022-10-12T13:38:40.882Z,40.44
2022-10-12T13:41:13.208Z,41.29
2022-10-12T13:44:02.385Z,41.56
2022-10-12T13:46:45.217Z,41.65
2022-10-12T13:49:23.827Z,41.81
2022-10-12T13:51:57.915Z,41.48
2022-10-12T13:54:31.692Z,42.72
2022-10-12T13:57:03.107Z,41.90
2022-10-12T13:59:36.554Z,42.31
2022-10-12T14:02:17.212Z,42.14
2022-10-12T14:04:44.965Z,42.53
2022-10-12T14:07:22.580Z,42.91
2022-10-12T14:09:58.758Z,43.01
2022-10-12T14:12:30.050Z,43.69
2022-10-12T14:14:58.637Z,43.72
2022-10-12T14:17:26.362Z,43.88
2022-10-12T14:19:58.873Z,44.16
2022-10-12T14:22:30.223Z,44.55
2022-10-12T14:25:06.978Z,43.91
2022-10-12T14:27:37.960Z,43.84
2022-10-12T14:30:33.872Z,44.17
2022-10-12T14:33:16.968Z,44.63
2022-10-12T14:35:48.348Z,44.55
2022-10-12T14:38:45.697Z,44.75
2022-10-12T14:41:28.526Z,45.38
2022-10-12T14:44:08.319Z,45.99
2022-10-12T14:46:40.736Z,46.12
2022-10-12T14:49:20.346Z,46.36
2022-10-12T14:51:50.322Z,46.51
2022-10-12T14:54:18.109Z,46.85
2022-10-12T14:56:46.184Z,47.12
2022-10-12T14:59:14.951Z,47.14
2022-10-12T15:01:50.990Z,47.31
2022-10-12T15:04:19.277Z,47.58
2022-10-12T15:06:50.898Z,48.24
2022-10-12T15:09:19.549Z,48.48
2022-10-12T15:11:47.346Z,48.92
2022-10-12T15:14:15.296Z,49.66
2022-10-12T15:16:46.511Z,48.82
2022-10-12T15:19:14.399Z,49.15
2022-10-12T15:21:46.763Z,49.04
2022-10-12T15:24:15.624Z,49.60
2022-10-12T15:26:47.026Z,49.48
2022-10-12T15:29:14.724Z,49.83
2022-10-12T15:31:47.768Z,49.79
2022-10-12T15:34:19.102Z,50.09
2022-10-12T15:36:47.180Z,50.99
2022-10-12T15:39:14.845Z,51.16
2022-10-12T15:41:42.708Z,51.48
2022-10-12T15:44:13.168Z,52.05
2022-10-12T15:46:41.663Z,52.21
2022-10-12T15:49:09.519Z,53.04
2022-10-12T15:51:44.939Z,52.98
2022-10-12T15:54:12.680Z,54.45
2022-10-12T15:56:40.918Z,53.92
2022-10-12T15:59:08.781Z,53.95
2022-10-12T16:01:37.885Z,53.98
2022-10-12T16:04:07.515Z,54.13
2022-10-12T16:06:35.191Z,54.41
2022-10-12T16:09:02.906Z,55.01
2022-10-12T16:11:30.627Z,55.05
2022-10-12T16:13:58.257Z,55.23
2022-10-12T16:16:26.127Z,55.89
2022-10-12T16:18:54.348Z,56.04
2022-10-12T16:21:22.289Z,57.19
2022-10-12T16:23:49.974Z,56.78
2022-10-12T16:26:17.674Z,57.02
2022-10-12T16:28:45.531Z,57.86
2022-10-12T16:31:17.627Z,58.66
2022-10-12T16:33:45.719Z,59.36
2022-10-12T16:36:16.509Z,58.03
2022-10-12T16:38:44.343Z,57.45
2022-10-12T16:41:16.576Z,58.25
2022-10-12T16:43:44.450Z,59.06
2022-10-12T16:46:12.150Z,61.30
2022-10-12T16:48:39.803Z,62.84
2022-10-12T16:51:12.177Z,61.52
2022-10-12T16:53:42.309Z,61.17
2022-10-12T16:56:10.286Z,60.73
2022-10-12T16:58:37.960Z,60.24
2022-10-12T17:01:11.511Z,60.31
2022-10-12T17:03:40.338Z,61.18
2022-10-12T17:06:08.904Z,61.24
2022-10-12T17:08:39.129Z,62.50
2022-10-12T17:11:13.595Z,62.96
2022-10-12T17:13:45.241Z,61.93
2022-10-12T17:16:36.141Z,63.16
2022-10-12T17:19:04.542Z,62.61
2022-10-12T17:21:32.194Z,61.92
2022-10-12T17:24:01.017Z,62.73
2022-10-12T17:26:28.901Z,63.16
2022-10-12T17:28:56.623Z,63.22
2022-10-12T17:31:24.799Z,64.09
2022-10-12T17:33:53.123Z,64.79
2022-10-12T17:36:24.431Z,64.51
2022-10-12T17:38:56.809Z,64.67
2022-10-12T17:41:25.492Z,64.94
2022-10-12T17:43:53.172Z,64.64
2022-10-12T17:46:22.699Z,64.36
2022-10-12T17:48:51.017Z,64.18
2022-10-12T17:51:18.926Z,64.12
2022-10-12T17:53:46.837Z,63.27
2022-10-12T17:56:15.297Z,63.39
2022-10-12T17:58:43.097Z,63.52
2022-10-12T18:01:14.125Z,64.64
2022-10-12T18:03:45.373Z,65.26
2022-10-12T18:06:16.107Z,65.39
2022-10-12T18:08:44.414Z,64.83
2022-10-12T18:11:12.467Z,65.24
2022-10-12T18:13:40.280Z,65.90
2022-10-12T18:16:11.074Z,66.15
2022-10-12T18:18:39.697Z,66.58
2022-10-12T18:21:10.646Z,66.77
2022-10-12T18:23:38.413Z,66.59
2022-10-12T18:26:11.719Z,66.26
2022-10-12T18:28:40.837Z,66.81
2022-10-12T18:31:08.669Z,66.49
2022-10-12T18:33:36.372Z,66.43
2022-10-12T18:36:05.839Z,66.93
2022-10-12T18:38:34.439Z,66.85
2022-10-12T18:41:07.394Z,66.65
2022-10-12T18:43:36.265Z,69.23
2022-10-12T18:46:12.799Z,67.10
2022-10-12T18:48:41.026Z,67.78
2022-10-12T18:51:25.180Z,67.15
2022-10-12T18:53:53.181Z,66.82
2022-10-12T18:56:21.248Z,67.77
2022-10-12T18:58:49.537Z,69.10
2022-10-12T19:01:20.247Z,68.79
2022-10-12T19:03:48.808Z,69.37
2022-10-12T19:06:20.514Z,69.01
2022-10-12T19:08:49.083Z,68.75
2022-10-12T19:11:19.099Z,67.96
2022-10-12T19:13:55.528Z,68.09
2022-10-12T19:16:23.801Z,68.02
2022-10-12T19:18:59.838Z,67.79
2022-10-12T19:21:28.218Z,68.09
2022-10-12T19:23:56.133Z,69.22
2022-10-12T19:26:26.966Z,68.17
2022-10-12T19:28:56.418Z,68.26
2022-10-12T19:31:26.854Z,68.09
2022-10-12T19:33:59.666Z,69.43
2022-10-12T19:36:28.630Z,70.09
2022-10-12T19:38:58.960Z,70.49
2022-10-12T19:41:28.814Z,70.65
2022-10-12T19:43:57.541Z,71.56
2022-10-12T19:46:25.432Z,70.92
2022-10-12T19:48:55.078Z,71.27
2022-10-12T19:51:24.626Z,71.34
2022-10-12T19:53:57.521Z,70.32
2022-10-12T19:56:26.063Z,70.44
2022-10-12T19:58:56.251Z,70.80
2022-10-12T20:01:27.408Z,71.00
2022-10-12T20:03:55.918Z,71.03
2022-10-12T20:06:26.346Z,71.22
2022-10-12T20:08:56.192Z,71.67
2022-10-12T20:11:25.176Z,72.08
2022-10-12T20:13:53.416Z,72.54
2022-10-12T20:16:22.033Z,72.64
2022-10-12T20:18:50.478Z,72.56
2022-10-12T20:21:24.484Z,72.20
2022-10-12T20:23:52.276Z,71.85
2022-10-12T20:26:25.702Z,72.14
2022-10-12T20:28:54.475Z,72.18
2022-10-12T20:31:27.514Z,72.23
2022-10-12T20:33:57.793Z,72.18
2022-10-12T20:36:30.221Z,72.72
2022-10-12T20:38:59.340Z,72.99
2022-10-12T20:41:28.088Z,72.82
2022-10-12T20:43:57.236Z,72.99
2022-10-12T20:46:25.988Z,72.91
2022-10-12T20:48:58.817Z,73.55
2022-10-12T20:51:32.885Z,74.25
2022-10-12T20:54:03.076Z,74.80
2022-10-12T20:56:33.018Z,74.85
2022-10-12T20:59:01.437Z,74.97
2022-10-12T21:01:29.509Z,74.59
2022-10-12T21:03:57.422Z,74.38
2022-10-12T21:06:25.185Z,74.26
2022-10-12T21:08:55.273Z,74.44
2022-10-12T21:11:23.435Z,74.35
2022-10-12T21:13:51.155Z,74.25
2022-10-12T21:16:19.265Z,74.58
2022-10-12T21:18:47.158Z,74.82
2022-10-12T21:21:18.529Z,74.44
2022-10-12T21:23:57.713Z,74.58
2022-10-12T21:26:29.162Z,74.82
2022-10-12T21:28:58.267Z,75.35
2022-10-12T21:31:31.777Z,75.52
2022-10-12T21:34:05.111Z,75.81
2022-10-12T21:36:36.378Z,75.84
2022-10-12T21:39:09.868Z,75.25
2022-10-12T21:41:37.603Z,75.35
2022-10-12T21:44:05.684Z,74.76
2022-10-12T21:46:35.192Z,74.75
2022-10-12T21:49:04.656Z,74.63
2022-10-12T21:51:32.901Z,74.61
2022-10-12T21:54:00.633Z,74.49
2022-10-12T21:56:33.194Z,74.45
2022-10-12T21:59:02.185Z,74.62
2022-10-12T22:01:39.007Z,75.15
2022-10-12T22:04:11.836Z,74.88
2022-10-12T22:06:39.821Z,75.34
2022-10-12T22:09:11.903Z,75.72
2022-10-12T22:11:39.693Z,76.03
2022-10-12T22:14:11.274Z,76.28
2022-10-12T22:16:39.506Z,75.86
2022-10-12T22:19:08.428Z,76.06
2022-10-12T22:21:36.540Z,76.60
2022-10-12T22:24:05.936Z,75.75
2022-10-12T22:26:35.172Z,75.52
2022-10-12T22:29:05.126Z,75.46
2022-10-12T22:31:33.582Z,75.42
2022-10-12T22:34:01.297Z,75.75
2022-10-12T22:36:31.112Z,75.35
2022-10-12T22:38:59.616Z,75.02
2022-10-12T22:41:27.470Z,74.87
2022-10-12T22:43:56.847Z,74.87
2022-10-12T22:46:25.907Z,75.84
2022-10-12T22:48:54.612Z,76.13
2022-10-12T22:51:31.244Z,75.11
2022-10-12T22:54:00.386Z,75.76
2022-10-12T22:56:28.774Z,76.17
2022-10-12T22:58:59.099Z,76.49
2022-10-12T23:01:27.244Z,76.74
2022-10-12T23:03:55.385Z,76.37
2022-10-12T23:06:23.749Z,76.38
2022-10-12T23:08:51.759Z,76.34
2022-10-12T23:11:25.124Z,75.97
2022-10-12T23:13:54.372Z,75.92
2022-10-12T23:16:24.514Z,75.72
2022-10-12T23:18:59.933Z,75.71
2022-10-12T23:21:29.484Z,76.34
2022-10-12T23:40:08.686Z,76.98
2022-10-12T23:42:34.919Z,77.31
2022-10-12T23:45:03.361Z,76.82
2022-10-12T23:47:29.991Z,76.64
2022-10-12T23:49:56.224Z,76.18
2022-10-12T23:52:22.437Z,76.40
2022-10-12T23:54:50.266Z,76.05
2022-10-12T23:57:41.395Z,76.16
